sensor_id;sensor_type;location;lat;lon;timestamp;P1;durP1;ratioP1;P2;durP2;ratioP2
13475;SDS011;6810;63.824;20.288;2023-09-19T00:00:26;0.80;;;0.47;;
13475;SDS011;6810;63.824;20.288;2023-09-19T00:03:13;1.00;;;0.40;;
13475;SDS011;6810;63.824;20.288;2023-09-19T00:06:00;1.90;;;1.00;;
13475;SDS011;6810;63.824;20.288;2023-09-19T00:08:47;1.80;;;0.63;;
13475;SDS011;6810;63.824;20.288;2023-09-19T00:11:34;1.10;;;0.43;;
13475;SDS011;6810;63.824;20.288;2023-09-19T00:14:24;3.20;;;0.53;;
13475;SDS011;6810;63.824;20.288;2023-09-19T00:17:11;0.90;;;0.40;;
13475;SDS011;6810;63.824;20.288;2023-09-19T00:19:58;0.77;;;0.40;;
13475;SDS011;6810;63.824;20.288;2023-09-19T00:22:45;0.80;;;0.60;;
13475;SDS011;6810;63.824;20.288;2023-09-19T00:25:32;0.97;;;0.50;;
13475;SDS011;6810;63.824;20.288;2023-09-19T00:28:19;0.60;;;0.40;;
13475;SDS011;6810;63.824;20.288;2023-09-19T00:31:09;1.70;;;0.40;;
13475;SDS011;6810;63.824;20.288;2023-09-19T00:33:57;1.83;;;0.63;;
13475;SDS011;6810;63.824;20.288;2023-09-19T00:36:44;0.53;;;0.40;;
13475;SDS011;6810;63.824;20.288;2023-09-19T00:39:31;1.60;;;0.40;;
13475;SDS011;6810;63.824;20.288;2023-09-19T00:42:20;1.57;;;0.40;;
13475;SDS011;6810;63.824;20.288;2023-09-19T00:45:07;0.83;;;0.40;;
13475;SDS011;6810;63.824;20.288;2023-09-19T00:47:59;0.97;;;0.60;;
13475;SDS011;6810;63.824;20.288;2023-09-19T00:50:48;1.47;;;0.60;;
13475;SDS011;6810;63.824;20.288;2023-09-19T00:53:36;0.37;;;0.30;;
13475;SDS011;6810;63.824;20.288;2023-09-19T00:56:23;0.40;;;0.40;;
13475;SDS011;6810;63.824;20.288;2023-09-19T00:59:10;0.80;;;0.60;;
13475;SDS011;6810;63.824;20.288;2023-09-19T01:01:58;0.70;;;0.40;;
13475;SDS011;6810;63.824;20.288;2023-09-19T01:04:45;0.80;;;0.43;;
13475;SDS011;6810;63.824;20.288;2023-09-19T01:07:32;1.57;;;1.03;;
13475;SDS011;6810;63.824;20.288;2023-09-19T01:10:21;1.43;;;0.80;;
13475;SDS011;6810;63.824;20.288;2023-09-19T01:16:21;0.83;;;0.50;;
13475;SDS011;6810;63.824;20.288;2023-09-19T01:22:29;1.87;;;0.50;;
13475;SDS011;6810;63.824;20.288;2023-09-19T01:25:33;1.07;;;0.77;;
13475;SDS011;6810;63.824;20.288;2023-09-19T01:31:31;1.50;;;0.50;;
13475;SDS011;6810;63.824;20.288;2023-09-19T01:34:20;1.23;;;0.60;;
13475;SDS011;6810;63.824;20.288;2023-09-19T01:37:07;1.87;;;0.60;;
13475;SDS011;6810;63.824;20.288;2023-09-19T01:40:02;1.63;;;0.47;;
13475;SDS011;6810;63.824;20.288;2023-09-19T01:42:58;4.60;;;1.47;;
13475;SDS011;6810;63.824;20.288;2023-09-19T01:46:12;2.07;;;0.50;;
13475;SDS011;6810;63.824;20.288;2023-09-19T01:52:19;2.77;;;0.60;;
13475;SDS011;6810;63.824;20.288;2023-09-19T01:55:09;1.50;;;0.50;;
13475;SDS011;6810;63.824;20.288;2023-09-19T01:58:14;1.10;;;0.60;;
13475;SDS011;6810;63.824;20.288;2023-09-19T02:01:07;2.00;;;0.40;;
13475;SDS011;6810;63.824;20.288;2023-09-19T02:03:57;0.90;;;0.60;;
13475;SDS011;6810;63.824;20.288;2023-09-19T02:06:45;1.13;;;0.70;;
13475;SDS011;6810;63.824;20.288;2023-09-19T02:09:32;4.20;;;0.70;;
13475;SDS011;6810;63.824;20.288;2023-09-19T02:12:19;1.23;;;0.57;;
13475;SDS011;6810;63.824;20.288;2023-09-19T02:15:06;1.10;;;0.43;;
13475;SDS011;6810;63.824;20.288;2023-09-19T02:17:54;0.63;;;0.40;;
13475;SDS011;6810;63.824;20.288;2023-09-19T02:20:41;1.80;;;0.50;;
13475;SDS011;6810;63.824;20.288;2023-09-19T02:23:28;2.33;;;0.50;;
13475;SDS011;6810;63.824;20.288;2023-09-19T02:26:15;1.47;;;0.70;;
13475;SDS011;6810;63.824;20.288;2023-09-19T02:29:02;1.60;;;0.57;;
13475;SDS011;6810;63.824;20.288;2023-09-19T02:31:49;0.83;;;0.50;;
13475;SDS011;6810;63.824;20.288;2023-09-19T02:34:36;1.53;;;0.60;;
13475;SDS011;6810;63.824;20.288;2023-09-19T02:37:24;2.90;;;0.77;;
13475;SDS011;6810;63.824;20.288;2023-09-19T02:40:11;0.53;;;0.50;;
13475;SDS011;6810;63.824;20.288;2023-09-19T02:43:11;1.47;;;0.60;;
13475;SDS011;6810;63.824;20.288;2023-09-19T02:45:58;1.73;;;0.63;;
13475;SDS011;6810;63.824;20.288;2023-09-19T02:48:45;2.80;;;0.70;;
13475;SDS011;6810;63.824;20.288;2023-09-19T02:51:32;1.57;;;0.90;;
13475;SDS011;6810;63.824;20.288;2023-09-19T02:54:20;0.93;;;0.50;;
13475;SDS011;6810;63.824;20.288;2023-09-19T02:57:07;1.30;;;0.60;;
13475;SDS011;6810;63.824;20.288;2023-09-19T02:59:54;3.33;;;0.60;;
13475;SDS011;6810;63.824;20.288;2023-09-19T03:02:21;1.20;;;0.60;;
13475;SDS011;6810;63.824;20.288;2023-09-19T03:04:51;2.10;;;0.80;;
13475;SDS011;6810;63.824;20.288;2023-09-19T03:07:18;2.23;;;0.70;;
13475;SDS011;6810;63.824;20.288;2023-09-19T03:09:45;2.33;;;0.80;;
13475;SDS011;6810;63.824;20.288;2023-09-19T03:12:12;2.07;;;0.70;;
13475;SDS011;6810;63.824;20.288;2023-09-19T03:14:42;2.53;;;0.90;;
13475;SDS011;6810;63.824;20.288;2023-09-19T03:17:09;3.10;;;1.00;;
13475;SDS011;6810;63.824;20.288;2023-09-19T03:19:36;2.20;;;0.93;;
13475;SDS011;6810;63.824;20.288;2023-09-19T03:22:06;4.13;;;0.90;;
13475;SDS011;6810;63.824;20.288;2023-09-19T03:24:34;1.80;;;0.60;;
13475;SDS011;6810;63.824;20.288;2023-09-19T03:27:04;1.63;;;0.80;;
13475;SDS011;6810;63.824;20.288;2023-09-19T03:29:31;1.30;;;0.80;;
13475;SDS011;6810;63.824;20.288;2023-09-19T03:32:01;2.20;;;0.63;;
13475;SDS011;6810;63.824;20.288;2023-09-19T03:34:29;1.23;;;0.70;;
13475;SDS011;6810;63.824;20.288;2023-09-19T03:36:56;1.13;;;0.80;;
13475;SDS011;6810;63.824;20.288;2023-09-19T03:39:23;1.83;;;0.60;;
13475;SDS011;6810;63.824;20.288;2023-09-19T03:41:50;4.10;;;0.70;;
13475;SDS011;6810;63.824;20.288;2023-09-19T03:44:17;2.37;;;0.73;;
13475;SDS011;6810;63.824;20.288;2023-09-19T03:46:45;2.63;;;0.80;;
13475;SDS011;6810;63.824;20.288;2023-09-19T03:49:12;1.13;;;0.40;;
13475;SDS011;6810;63.824;20.288;2023-09-19T03:51:39;1.77;;;0.70;;
13475;SDS011;6810;63.824;20.288;2023-09-19T03:54:08;1.57;;;0.70;;
13475;SDS011;6810;63.824;20.288;2023-09-19T03:56:35;1.53;;;0.70;;
13475;SDS011;6810;63.824;20.288;2023-09-19T03:59:03;0.87;;;0.60;;
13475;SDS011;6810;63.824;20.288;2023-09-19T04:01:30;2.17;;;1.20;;
13475;SDS011;6810;63.824;20.288;2023-09-19T04:03:59;2.43;;;0.90;;
13475;SDS011;6810;63.824;20.288;2023-09-19T04:06:35;0.53;;;0.53;;
13475;SDS011;6810;63.824;20.288;2023-09-19T04:09:03;1.53;;;0.70;;
13475;SDS011;6810;63.824;20.288;2023-09-19T04:11:30;1.37;;;0.70;;
13475;SDS011;6810;63.824;20.288;2023-09-19T04:13:57;1.20;;;0.87;;
13475;SDS011;6810;63.824;20.288;2023-09-19T04:16:25;2.07;;;0.93;;
13475;SDS011;6810;63.824;20.288;2023-09-19T04:18:52;1.10;;;1.00;;
13475;SDS011;6810;63.824;20.288;2023-09-19T04:21:19;1.53;;;0.90;;
13475;SDS011;6810;63.824;20.288;2023-09-19T04:23:46;2.10;;;0.83;;
13475;SDS011;6810;63.824;20.288;2023-09-19T04:26:13;2.43;;;0.80;;
13475;SDS011;6810;63.824;20.288;2023-09-19T04:28:42;1.13;;;0.60;;
13475;SDS011;6810;63.824;20.288;2023-09-19T04:31:10;2.90;;;0.70;;
13475;SDS011;6810;63.824;20.288;2023-09-19T04:33:38;2.73;;;1.00;;
13475;SDS011;6810;63.824;20.288;2023-09-19T04:36:06;2.03;;;0.80;;
13475;SDS011;6810;63.824;20.288;2023-09-19T04:38:54;2.53;;;0.90;;
13475;SDS011;6810;63.824;20.288;2023-09-19T04:41:21;1.93;;;0.77;;
13475;SDS011;6810;63.824;20.288;2023-09-19T04:43:48;1.13;;;0.80;;
13475;SDS011;6810;63.824;20.288;2023-09-19T04:46:18;1.20;;;0.70;;
13475;SDS011;6810;63.824;20.288;2023-09-19T04:48:45;1.03;;;0.70;;
13475;SDS011;6810;63.824;20.288;2023-09-19T04:51:12;1.40;;;0.67;;
13475;SDS011;6810;63.824;20.288;2023-09-19T04:53:40;1.93;;;0.80;;
13475;SDS011;6810;63.824;20.288;2023-09-19T04:56:07;2.50;;;0.80;;
13475;SDS011;6810;63.824;20.288;2023-09-19T04:58:34;1.80;;;0.50;;
13475;SDS011;6810;63.824;20.288;2023-09-19T05:01:02;1.73;;;0.70;;
13475;SDS011;6810;63.824;20.288;2023-09-19T05:03:29;2.37;;;0.73;;
13475;SDS011;6810;63.824;20.288;2023-09-19T05:05:56;2.80;;;1.10;;
13475;SDS011;6810;63.824;20.288;2023-09-19T05:08:23;3.40;;;0.80;;
13475;SDS011;6810;63.824;20.288;2023-09-19T05:10:52;1.87;;;0.80;;
13475;SDS011;6810;63.824;20.288;2023-09-19T05:13:19;2.10;;;0.70;;
13475;SDS011;6810;63.824;20.288;2023-09-19T05:15:46;2.07;;;0.63;;
13475;SDS011;6810;63.824;20.288;2023-09-19T05:18:13;1.67;;;0.80;;
13475;SDS011;6810;63.824;20.288;2023-09-19T05:20:40;2.43;;;0.87;;
13475;SDS011;6810;63.824;20.288;2023-09-19T05:23:07;1.67;;;0.77;;
13475;SDS011;6810;63.824;20.288;2023-09-19T05:25:36;1.63;;;0.70;;
13475;SDS011;6810;63.824;20.288;2023-09-19T05:28:06;2.57;;;0.60;;
13475;SDS011;6810;63.824;20.288;2023-09-19T05:30:34;2.70;;;1.00;;
13475;SDS011;6810;63.824;20.288;2023-09-19T05:33:06;3.50;;;0.87;;
13475;SDS011;6810;63.824;20.288;2023-09-19T05:35:35;2.37;;;0.80;;
13475;SDS011;6810;63.824;20.288;2023-09-19T05:38:06;1.93;;;0.90;;
13475;SDS011;6810;63.824;20.288;2023-09-19T05:40:35;2.43;;;0.63;;
13475;SDS011;6810;63.824;20.288;2023-09-19T05:43:03;1.77;;;0.57;;
13475;SDS011;6810;63.824;20.288;2023-09-19T05:45:32;0.87;;;0.67;;
13475;SDS011;6810;63.824;20.288;2023-09-19T05:48:07;1.67;;;1.00;;
13475;SDS011;6810;63.824;20.288;2023-09-19T05:50:43;1.70;;;0.80;;
13475;SDS011;6810;63.824;20.288;2023-09-19T05:53:11;1.43;;;0.80;;
13475;SDS011;6810;63.824;20.288;2023-09-19T05:55:41;0.87;;;0.60;;
13475;SDS011;6810;63.824;20.288;2023-09-19T05:58:09;0.70;;;0.70;;
13475;SDS011;6810;63.824;20.288;2023-09-19T06:00:37;2.43;;;0.77;;
13475;SDS011;6810;63.824;20.288;2023-09-19T06:03:06;2.87;;;1.10;;
13475;SDS011;6810;63.824;20.288;2023-09-19T06:05:33;1.57;;;0.80;;
13475;SDS011;6810;63.824;20.288;2023-09-19T06:08:00;2.63;;;0.70;;
13475;SDS011;6810;63.824;20.288;2023-09-19T06:10:28;1.70;;;0.90;;
13475;SDS011;6810;63.824;20.288;2023-09-19T06:12:56;1.10;;;0.70;;
13475;SDS011;6810;63.824;20.288;2023-09-19T06:15:25;1.47;;;0.87;;
13475;SDS011;6810;63.824;20.288;2023-09-19T06:17:54;1.13;;;0.80;;
13475;SDS011;6810;63.824;20.288;2023-09-19T06:20:22;2.40;;;0.67;;
13475;SDS011;6810;63.824;20.288;2023-09-19T06:22:50;1.67;;;0.90;;
13475;SDS011;6810;63.824;20.288;2023-09-19T06:25:18;3.37;;;1.00;;
13475;SDS011;6810;63.824;20.288;2023-09-19T06:27:47;1.27;;;0.80;;
13475;SDS011;6810;63.824;20.288;2023-09-19T06:30:22;1.47;;;0.70;;
13475;SDS011;6810;63.824;20.288;2023-09-19T06:32:58;1.90;;;0.80;;
13475;SDS011;6810;63.824;20.288;2023-09-19T06:35:27;2.07;;;0.80;;
13475;SDS011;6810;63.824;20.288;2023-09-19T06:37:56;1.87;;;0.97;;
13475;SDS011;6810;63.824;20.288;2023-09-19T06:40:25;0.80;;;0.80;;
13475;SDS011;6810;63.824;20.288;2023-09-19T06:42:52;0.83;;;0.80;;
13475;SDS011;6810;63.824;20.288;2023-09-19T06:45:20;2.00;;;1.17;;
13475;SDS011;6810;63.824;20.288;2023-09-19T06:47:49;2.10;;;0.70;;
13475;SDS011;6810;63.824;20.288;2023-09-19T06:50:18;3.07;;;1.20;;
13475;SDS011;6810;63.824;20.288;2023-09-19T06:52:50;2.43;;;0.83;;
13475;SDS011;6810;63.824;20.288;2023-09-19T06:55:19;2.20;;;0.90;;
13475;SDS011;6810;63.824;20.288;2023-09-19T06:57:47;1.47;;;1.10;;
13475;SDS011;6810;63.824;20.288;2023-09-19T07:00:15;1.50;;;0.77;;
13475;SDS011;6810;63.824;20.288;2023-09-19T07:02:45;1.60;;;0.77;;
13475;SDS011;6810;63.824;20.288;2023-09-19T07:05:21;1.67;;;0.70;;
13475;SDS011;6810;63.824;20.288;2023-09-19T07:07:48;1.10;;;1.00;;
13475;SDS011;6810;63.824;20.288;2023-09-19T07:10:16;2.00;;;1.43;;
13475;SDS011;6810;63.824;20.288;2023-09-19T07:12:45;2.53;;;0.90;;
13475;SDS011;6810;63.824;20.288;2023-09-19T07:15:12;2.10;;;0.80;;
13475;SDS011;6810;63.824;20.288;2023-09-19T07:17:39;1.50;;;0.80;;
13475;SDS011;6810;63.824;20.288;2023-09-19T07:20:06;1.13;;;0.93;;
13475;SDS011;6810;63.824;20.288;2023-09-19T07:22:37;1.43;;;0.90;;
13475;SDS011;6810;63.824;20.288;2023-09-19T07:25:06;1.50;;;0.80;;
13475;SDS011;6810;63.824;20.288;2023-09-19T07:27:33;3.07;;;0.90;;
13475;SDS011;6810;63.824;20.288;2023-09-19T07:30:00;1.90;;;1.00;;
13475;SDS011;6810;63.824;20.288;2023-09-19T07:32:28;1.90;;;0.80;;
13475;SDS011;6810;63.824;20.288;2023-09-19T07:34:58;2.53;;;0.80;;
13475;SDS011;6810;63.824;20.288;2023-09-19T07:37:46;1.10;;;0.80;;
13475;SDS011;6810;63.824;20.288;2023-09-19T07:40:17;2.50;;;1.00;;
13475;SDS011;6810;63.824;20.288;2023-09-19T07:43:05;1.47;;;0.90;;
13475;SDS011;6810;63.824;20.288;2023-09-19T07:45:52;1.57;;;0.90;;
13475;SDS011;6810;63.824;20.288;2023-09-19T07:48:39;2.43;;;0.70;;
13475;SDS011;6810;63.824;20.288;2023-09-19T07:51:26;2.40;;;0.97;;
13475;SDS011;6810;63.824;20.288;2023-09-19T07:54:13;1.07;;;1.00;;
13475;SDS011;6810;63.824;20.288;2023-09-19T07:57:03;2.10;;;0.70;;
13475;SDS011;6810;63.824;20.288;2023-09-19T07:59:50;3.83;;;0.87;;
13475;SDS011;6810;63.824;20.288;2023-09-19T08:02:37;1.60;;;0.80;;
13475;SDS011;6810;63.824;20.288;2023-09-19T08:05:34;0.80;;;0.80;;
13475;SDS011;6810;63.824;20.288;2023-09-19T08:08:21;2.80;;;1.17;;
13475;SDS011;6810;63.824;20.288;2023-09-19T08:11:08;1.57;;;0.90;;
13475;SDS011;6810;63.824;20.288;2023-09-19T08:13:57;2.50;;;1.00;;
13475;SDS011;6810;63.824;20.288;2023-09-19T08:16:44;1.10;;;0.90;;
13475;SDS011;6810;63.824;20.288;2023-09-19T08:19:32;2.30;;;1.10;;
13475;SDS011;6810;63.824;20.288;2023-09-19T08:22:21;2.23;;;1.10;;
13475;SDS011;6810;63.824;20.288;2023-09-19T08:25:08;1.20;;;0.80;;
13475;SDS011;6810;63.824;20.288;2023-09-19T08:27:55;2.57;;;1.10;;
13475;SDS011;6810;63.824;20.288;2023-09-19T08:30:42;1.00;;;0.90;;
13475;SDS011;6810;63.824;20.288;2023-09-19T08:33:31;2.03;;;0.83;;
13475;SDS011;6810;63.824;20.288;2023-09-19T08:36:18;1.27;;;1.10;;
13475;SDS011;6810;63.824;20.288;2023-09-19T08:39:05;2.77;;;1.23;;
13475;SDS011;6810;63.824;20.288;2023-09-19T08:41:58;2.80;;;1.30;;
13475;SDS011;6810;63.824;20.288;2023-09-19T08:44:46;1.33;;;1.23;;
13475;SDS011;6810;63.824;20.288;2023-09-19T08:47:37;5.20;;;1.20;;
13475;SDS011;6810;63.824;20.288;2023-09-19T08:50:33;1.97;;;0.93;;
13475;SDS011;6810;63.824;20.288;2023-09-19T08:54:12;2.40;;;1.10;;
13475;SDS011;6810;63.824;20.288;2023-09-19T08:56:48;2.63;;;1.20;;
13475;SDS011;6810;63.824;20.288;2023-09-19T08:59:37;4.53;;;1.40;;
13475;SDS011;6810;63.824;20.288;2023-09-19T09:02:25;1.53;;;1.43;;
13475;SDS011;6810;63.824;20.288;2023-09-19T09:05:13;3.90;;;1.57;;
13475;SDS011;6810;63.824;20.288;2023-09-19T09:08:01;1.70;;;1.30;;
13475;SDS011;6810;63.824;20.288;2023-09-19T09:10:49;2.13;;;1.40;;
13475;SDS011;6810;63.824;20.288;2023-09-19T09:13:40;2.90;;;1.60;;
13475;SDS011;6810;63.824;20.288;2023-09-19T09:16:29;2.97;;;1.80;;
13475;SDS011;6810;63.824;20.288;2023-09-19T09:19:16;2.33;;;1.60;;
13475;SDS011;6810;63.824;20.288;2023-09-19T09:22:07;5.23;;;1.67;;
13475;SDS011;6810;63.824;20.288;2023-09-19T09:24:56;2.37;;;1.60;;
13475;SDS011;6810;63.824;20.288;2023-09-19T09:28:00;4.03;;;1.83;;
13475;SDS011;6810;63.824;20.288;2023-09-19T09:30:48;2.70;;;1.63;;
13475;SDS011;6810;63.824;20.288;2023-09-19T09:33:35;2.63;;;1.60;;
13475;SDS011;6810;63.824;20.288;2023-09-19T09:36:33;3.30;;;2.10;;
13475;SDS011;6810;63.824;20.288;2023-09-19T09:39:29;4.10;;;2.13;;
13475;SDS011;6810;63.824;20.288;2023-09-19T09:42:30;5.23;;;2.33;;
13475;SDS011;6810;63.824;20.288;2023-09-19T09:45:21;2.30;;;2.10;;
13475;SDS011;6810;63.824;20.288;2023-09-19T09:48:01;3.90;;;2.40;;
13475;SDS011;6810;63.824;20.288;2023-09-19T09:50:51;2.87;;;2.10;;
13475;SDS011;6810;63.824;20.288;2023-09-19T09:53:38;4.40;;;2.53;;
13475;SDS011;6810;63.824;20.288;2023-09-19T09:56:25;3.80;;;2.47;;
13475;SDS011;6810;63.824;20.288;2023-09-19T09:59:12;3.40;;;2.50;;
13475;SDS011;6810;63.824;20.288;2023-09-19T10:02:01;4.83;;;2.13;;
13475;SDS011;6810;63.824;20.288;2023-09-19T10:04:48;4.53;;;2.73;;
13475;SDS011;6810;63.824;20.288;2023-09-19T10:07:39;3.00;;;2.63;;
13475;SDS011;6810;63.824;20.288;2023-09-19T10:13:30;5.03;;;2.70;;
13475;SDS011;6810;63.824;20.288;2023-09-19T10:16:18;3.90;;;2.50;;
13475;SDS011;6810;63.824;20.288;2023-09-19T10:19:06;5.70;;;2.80;;
13475;SDS011;6810;63.824;20.288;2023-09-19T10:21:54;4.20;;;2.70;;
13475;SDS011;6810;63.824;20.288;2023-09-19T10:24:45;4.00;;;3.37;;
13475;SDS011;6810;63.824;20.288;2023-09-19T10:27:33;6.97;;;3.03;;
13475;SDS011;6810;63.824;20.288;2023-09-19T10:30:22;4.33;;;2.80;;
13475;SDS011;6810;63.824;20.288;2023-09-19T10:33:11;3.90;;;2.77;;
13475;SDS011;6810;63.824;20.288;2023-09-19T10:35:59;5.27;;;2.90;;
13475;SDS011;6810;63.824;20.288;2023-09-19T10:38:47;7.30;;;3.43;;
13475;SDS011;6810;63.824;20.288;2023-09-19T10:41:36;3.30;;;2.80;;
13475;SDS011;6810;63.824;20.288;2023-09-19T10:44:24;7.97;;;3.33;;
13475;SDS011;6810;63.824;20.288;2023-09-19T10:47:14;5.23;;;3.33;;
13475;SDS011;6810;63.824;20.288;2023-09-19T10:50:01;6.13;;;3.70;;
13475;SDS011;6810;63.824;20.288;2023-09-19T10:52:48;4.40;;;3.33;;
13475;SDS011;6810;63.824;20.288;2023-09-19T10:55:37;4.53;;;3.03;;
13475;SDS011;6810;63.824;20.288;2023-09-19T10:58:26;6.73;;;3.30;;
13475;SDS011;6810;63.824;20.288;2023-09-19T11:01:14;4.40;;;3.23;;
13475;SDS011;6810;63.824;20.288;2023-09-19T11:04:20;4.77;;;3.27;;
13475;SDS011;6810;63.824;20.288;2023-09-19T11:07:08;7.63;;;3.73;;
13475;SDS011;6810;63.824;20.288;2023-09-19T11:09:59;5.30;;;3.63;;
13475;SDS011;6810;63.824;20.288;2023-09-19T11:27:09;5.63;;;4.13;;
13475;SDS011;6810;63.824;20.288;2023-09-19T11:30:25;5.47;;;4.03;;
13475;SDS011;6810;63.824;20.288;2023-09-19T11:33:26;5.00;;;4.03;;
13475;SDS011;6810;63.824;20.288;2023-09-19T11:36:34;6.60;;;4.30;;
13475;SDS011;6810;63.824;20.288;2023-09-19T11:39:25;6.67;;;4.43;;
13475;SDS011;6810;63.824;20.288;2023-09-19T11:48:26;8.43;;;4.90;;
13475;SDS011;6810;63.824;20.288;2023-09-19T11:51:15;8.90;;;5.40;;
13475;SDS011;6810;63.824;20.288;2023-09-19T11:54:10;11.07;;;5.87;;
13475;SDS011;6810;63.824;20.288;2023-09-19T11:56:58;8.70;;;5.40;;
13475;SDS011;6810;63.824;20.288;2023-09-19T11:59:46;8.17;;;5.10;;
13475;SDS011;6810;63.824;20.288;2023-09-19T12:02:39;9.30;;;5.67;;
13475;SDS011;6810;63.824;20.288;2023-09-19T12:05:29;11.17;;;6.73;;
13475;SDS011;6810;63.824;20.288;2023-09-19T12:08:17;8.93;;;6.13;;
13475;SDS011;6810;63.824;20.288;2023-09-19T12:11:05;9.10;;;6.07;;
13475;SDS011;6810;63.824;20.288;2023-09-19T12:13:52;7.97;;;5.90;;
13475;SDS011;6810;63.824;20.288;2023-09-19T12:16:39;12.43;;;6.37;;
13475;SDS011;6810;63.824;20.288;2023-09-19T12:19:26;10.07;;;6.63;;
13475;SDS011;6810;63.824;20.288;2023-09-19T12:22:13;9.47;;;6.90;;
13475;SDS011;6810;63.824;20.288;2023-09-19T12:25:05;10.83;;;6.47;;
13475;SDS011;6810;63.824;20.288;2023-09-19T12:27:53;9.17;;;7.03;;
13475;SDS011;6810;63.824;20.288;2023-09-19T12:30:40;9.30;;;7.03;;
13475;SDS011;6810;63.824;20.288;2023-09-19T12:33:27;10.43;;;7.13;;
13475;SDS011;6810;63.824;20.288;2023-09-19T12:36:23;10.80;;;7.60;;
13475;SDS011;6810;63.824;20.288;2023-09-19T12:39:10;9.10;;;6.90;;
13475;SDS011;6810;63.824;20.288;2023-09-19T12:41:57;9.83;;;6.70;;
13475;SDS011;6810;63.824;20.288;2023-09-19T12:44:46;12.67;;;8.10;;
13475;SDS011;6810;63.824;20.288;2023-09-19T12:47:34;12.37;;;7.80;;
13475;SDS011;6810;63.824;20.288;2023-09-19T12:50:22;10.07;;;7.67;;
13475;SDS011;6810;63.824;20.288;2023-09-19T12:53:09;14.20;;;8.53;;
13475;SDS011;6810;63.824;20.288;2023-09-19T12:56:12;12.30;;;8.23;;
13475;SDS011;6810;63.824;20.288;2023-09-19T12:59:01;12.97;;;8.73;;
13475;SDS011;6810;63.824;20.288;2023-09-19T13:01:48;12.90;;;8.43;;
13475;SDS011;6810;63.824;20.288;2023-09-19T13:04:54;9.60;;;8.23;;
13475;SDS011;6810;63.824;20.288;2023-09-19T13:07:42;12.20;;;8.30;;
13475;SDS011;6810;63.824;20.288;2023-09-19T13:10:32;11.03;;;8.37;;
13475;SDS011;6810;63.824;20.288;2023-09-19T13:13:22;12.83;;;8.03;;
13475;SDS011;6810;63.824;20.288;2023-09-19T13:16:14;9.47;;;7.17;;
13475;SDS011;6810;63.824;20.288;2023-09-19T13:19:01;10.17;;;7.00;;
13475;SDS011;6810;63.824;20.288;2023-09-19T13:21:48;6.60;;;5.37;;
13475;SDS011;6810;63.824;20.288;2023-09-19T13:24:36;7.33;;;6.00;;
13475;SDS011;6810;63.824;20.288;2023-09-19T13:27:23;8.00;;;5.50;;
13475;SDS011;6810;63.824;20.288;2023-09-19T13:30:10;5.57;;;4.60;;
13475;SDS011;6810;63.824;20.288;2023-09-19T13:33:05;6.00;;;5.10;;
13475;SDS011;6810;63.824;20.288;2023-09-19T13:35:58;5.87;;;4.73;;
13475;SDS011;6810;63.824;20.288;2023-09-19T13:38:45;6.67;;;4.83;;
13475;SDS011;6810;63.824;20.288;2023-09-19T13:41:32;6.33;;;5.00;;
13475;SDS011;6810;63.824;20.288;2023-09-19T13:44:19;7.63;;;4.47;;
13475;SDS011;6810;63.824;20.288;2023-09-19T13:47:06;6.10;;;5.13;;
13475;SDS011;6810;63.824;20.288;2023-09-19T13:49:53;5.17;;;4.27;;
13475;SDS011;6810;63.824;20.288;2023-09-19T13:52:40;5.80;;;4.90;;
13475;SDS011;6810;63.824;20.288;2023-09-19T13:55:27;7.10;;;4.30;;
13475;SDS011;6810;63.824;20.288;2023-09-19T13:58:14;6.73;;;4.70;;
13475;SDS011;6810;63.824;20.288;2023-09-19T14:01:01;6.83;;;4.50;;
13475;SDS011;6810;63.824;20.288;2023-09-19T14:03:49;7.43;;;4.30;;
13475;SDS011;6810;63.824;20.288;2023-09-19T14:06:36;6.33;;;4.77;;
13475;SDS011;6810;63.824;20.288;2023-09-19T14:09:23;6.87;;;4.47;;
13475;SDS011;6810;63.824;20.288;2023-09-19T14:12:10;7.07;;;5.27;;
13475;SDS011;6810;63.824;20.288;2023-09-19T14:14:58;6.03;;;4.53;;
13475;SDS011;6810;63.824;20.288;2023-09-19T14:17:45;6.77;;;4.23;;
13475;SDS011;6810;63.824;20.288;2023-09-19T14:20:32;7.20;;;5.13;;
13475;SDS011;6810;63.824;20.288;2023-09-19T14:23:19;6.50;;;4.87;;
13475;SDS011;6810;63.824;20.288;2023-09-19T14:26:06;7.60;;;5.07;;
13475;SDS011;6810;63.824;20.288;2023-09-19T14:28:53;7.33;;;4.80;;
13475;SDS011;6810;63.824;20.288;2023-09-19T14:31:41;7.97;;;4.53;;
13475;SDS011;6810;63.824;20.288;2023-09-19T14:34:28;5.43;;;4.13;;
13475;SDS011;6810;63.824;20.288;2023-09-19T14:37:15;8.33;;;4.53;;
13475;SDS011;6810;63.824;20.288;2023-09-19T14:40:05;7.27;;;4.80;;
13475;SDS011;6810;63.824;20.288;2023-09-19T14:42:52;7.73;;;5.30;;
13475;SDS011;6810;63.824;20.288;2023-09-19T14:45:40;10.67;;;6.13;;
13475;SDS011;6810;63.824;20.288;2023-09-19T14:48:27;10.97;;;5.73;;
13475;SDS011;6810;63.824;20.288;2023-09-19T14:51:14;12.57;;;6.10;;
13475;SDS011;6810;63.824;20.288;2023-09-19T14:54:01;10.43;;;6.43;;
13475;SDS011;6810;63.824;20.288;2023-09-19T14:56:48;9.13;;;5.77;;
13475;SDS011;6810;63.824;20.288;2023-09-19T14:59:35;10.10;;;6.57;;
13475;SDS011;6810;63.824;20.288;2023-09-19T15:02:22;11.30;;;7.00;;
13475;SDS011;6810;63.824;20.288;2023-09-19T15:05:09;15.13;;;8.00;;
13475;SDS011;6810;63.824;20.288;2023-09-19T15:07:57;13.90;;;8.20;;
13475;SDS011;6810;63.824;20.288;2023-09-19T15:10:49;15.30;;;8.10;;
13475;SDS011;6810;63.824;20.288;2023-09-19T15:13:36;14.43;;;8.40;;
13475;SDS011;6810;63.824;20.288;2023-09-19T15:16:23;11.63;;;7.73;;
13475;SDS011;6810;63.824;20.288;2023-09-19T15:19:11;15.30;;;8.77;;
13475;SDS011;6810;63.824;20.288;2023-09-19T15:21:58;15.17;;;8.07;;
13475;SDS011;6810;63.824;20.288;2023-09-19T15:24:44;15.47;;;8.03;;
13475;SDS011;6810;63.824;20.288;2023-09-19T15:27:31;18.80;;;8.57;;
13475;SDS011;6810;63.824;20.288;2023-09-19T15:30:18;19.60;;;9.20;;
13475;SDS011;6810;63.824;20.288;2023-09-19T15:33:05;16.40;;;8.97;;
13475;SDS011;6810;63.824;20.288;2023-09-19T15:35:59;19.43;;;8.87;;
13475;SDS011;6810;63.824;20.288;2023-09-19T15:38:57;15.77;;;6.77;;
13475;SDS011;6810;63.824;20.288;2023-09-19T15:41:46;24.83;;;11.27;;
13475;SDS011;6810;63.824;20.288;2023-09-19T15:44:16;17.87;;;9.77;;
13475;SDS011;6810;63.824;20.288;2023-09-19T15:46:45;21.50;;;10.83;;
13475;SDS011;6810;63.824;20.288;2023-09-19T15:49:13;22.80;;;9.90;;
13475;SDS011;6810;63.824;20.288;2023-09-19T15:51:41;22.67;;;10.97;;
13475;SDS011;6810;63.824;20.288;2023-09-19T15:54:11;25.80;;;12.13;;
13475;SDS011;6810;63.824;20.288;2023-09-19T15:57:02;24.23;;;13.03;;
13475;SDS011;6810;63.824;20.288;2023-09-19T15:59:49;27.53;;;13.17;;
13475;SDS011;6810;63.824;20.288;2023-09-19T16:02:37;24.27;;;10.67;;
13475;SDS011;6810;63.824;20.288;2023-09-19T16:05:24;29.33;;;12.67;;
13475;SDS011;6810;63.824;20.288;2023-09-19T16:08:11;29.23;;;12.73;;
13475;SDS011;6810;63.824;20.288;2023-09-19T16:10:58;27.10;;;12.47;;
13475;SDS011;6810;63.824;20.288;2023-09-19T16:13:46;31.27;;;14.37;;
13475;SDS011;6810;63.824;20.288;2023-09-19T16:16:34;31.30;;;14.30;;
13475;SDS011;6810;63.824;20.288;2023-09-19T16:19:21;29.43;;;14.93;;
13475;SDS011;6810;63.824;20.288;2023-09-19T16:22:08;22.37;;;12.77;;
13475;SDS011;6810;63.824;20.288;2023-09-19T16:24:55;26.13;;;12.73;;
13475;SDS011;6810;63.824;20.288;2023-09-19T16:27:42;25.70;;;13.20;;
13475;SDS011;6810;63.824;20.288;2023-09-19T16:30:31;35.97;;;14.53;;
13475;SDS011;6810;63.824;20.288;2023-09-19T16:33:18;24.43;;;12.90;;
13475;SDS011;6810;63.824;20.288;2023-09-19T16:36:08;35.30;;;14.93;;
13475;SDS011;6810;63.824;20.288;2023-09-19T16:38:59;33.40;;;15.93;;
13475;SDS011;6810;63.824;20.288;2023-09-19T16:41:46;34.40;;;15.83;;
13475;SDS011;6810;63.824;20.288;2023-09-19T16:44:45;36.97;;;16.50;;
13475;SDS011;6810;63.824;20.288;2023-09-19T16:47:50;37.93;;;17.40;;
13475;SDS011;6810;63.824;20.288;2023-09-19T16:50:38;35.80;;;17.27;;
13475;SDS011;6810;63.824;20.288;2023-09-19T16:53:25;34.57;;;16.47;;